sensor_id;sensor_type;location;lat;lon;timestamp;temperature;humidity
31133;DHT22;17779;50.942;4.026;2022-12-24T00:01:18;10.80;99.90
31133;DHT22;17779;50.942;4.026;2022-12-24T00:03:44;10.80;99.90
31133;DHT22;17779;50.942;4.026;2022-12-24T00:06:17;10.90;99.90
31133;DHT22;17779;50.942;4.026;2022-12-24T00:08:43;11.00;99.90
31133;DHT22;17779;50.942;4.026;2022-12-24T00:11:09;11.10;99.90
31133;DHT22;17779;50.942;4.026;2022-12-24T00:13:35;11.20;99.90
31133;DHT22;17779;50.942;4.026;2022-12-24T00:16:00;11.30;99.90
31133;DHT22;17779;50.942;4.026;2022-12-24T00:18:26;11.30;99.90
31133;DHT22;17779;50.942;4.026;2022-12-24T00:20:52;11.20;99.90
31133;DHT22;17779;50.942;4.026;2022-12-24T00:23:18;11.20;99.90
31133;DHT22;17779;50.942;4.026;2022-12-24T00:25:44;11.20;99.90
31133;DHT22;17779;50.942;4.026;2022-12-24T00:28:09;11.20;99.90
31133;DHT22;17779;50.942;4.026;2022-12-24T00:30:39;11.20;99.90
31133;DHT22;17779;50.942;4.026;2022-12-24T00:33:04;11.30;99.90
31133;DHT22;17779;50.942;4.026;2022-12-24T00:35:32;11.20;99.90
31133;DHT22;17779;50.942;4.026;2022-12-24T00:37:58;11.20;99.90
31133;DHT22;17779;50.942;4.026;2022-12-24T00:40:24;11.20;99.90
31133;DHT22;17779;50.942;4.026;2022-12-24T00:42:49;11.20;99.90
31133;DHT22;17779;50.942;4.026;2022-12-24T00:45:15;11.20;99.90
31133;DHT22;17779;50.942;4.026;2022-12-24T00:47:41;11.10;99.90
31133;DHT22;17779;50.942;4.026;2022-12-24T00:50:07;11.10;99.90
31133;DHT22;17779;50.942;4.026;2022-12-24T00:52:33;11.00;99.90
31133;DHT22;17779;50.942;4.026;2022-12-24T00:54:59;11.00;99.90
31133;DHT22;17779;50.942;4.026;2022-12-24T00:57:24;10.90;99.90
31133;DHT22;17779;50.942;4.026;2022-12-24T00:59:50;11.00;99.90
31133;DHT22;17779;50.942;4.026;2022-12-24T01:02:16;10.90;99.90
31133;DHT22;17779;50.942;4.026;2022-12-24T01:04:41;10.80;99.90
31133;DHT22;17779;50.942;4.026;2022-12-24T01:07:26;10.80;99.90
31133;DHT22;17779;50.942;4.026;2022-12-24T01:09:51;10.80;99.90
31133;DHT22;17779;50.942;4.026;2022-12-24T01:12:17;10.80;99.90
31133;DHT22;17779;50.942;4.026;2022-12-24T01:14:43;10.80;99.90
31133;DHT22;17779;50.942;4.026;2022-12-24T01:17:08;10.90;99.90
31133;DHT22;17779;50.942;4.026;2022-12-24T01:19:34;10.80;99.90
31133;DHT22;17779;50.942;4.026;2022-12-24T01:22:00;10.80;99.90
31133;DHT22;17779;50.942;4.026;2022-12-24T01:24:26;10.80;99.90
31133;DHT22;17779;50.942;4.026;2022-12-24T01:26:51;10.80;99.90
31133;DHT22;17779;50.942;4.026;2022-12-24T01:29:17;10.80;99.90
31133;DHT22;17779;50.942;4.026;2022-12-24T01:31:43;10.80;99.90
31133;DHT22;17779;50.942;4.026;2022-12-24T01:34:09;10.90;99.90
31133;DHT22;17779;50.942;4.026;2022-12-24T01:36:35;10.90;99.90
31133;DHT22;17779;50.942;4.026;2022-12-24T01:39:01;10.90;99.90
31133;DHT22;17779;50.942;4.026;2022-12-24T01:41:26;10.90;99.90
31133;DHT22;17779;50.942;4.026;2022-12-24T01:44:24;10.90;99.90
31133;DHT22;17779;50.942;4.026;2022-12-24T01:49:34;10.90;99.90
31133;DHT22;17779;50.942;4.026;2022-12-24T01:52:05;10.90;99.90
31133;DHT22;17779;50.942;4.026;2022-12-24T01:54:32;10.90;99.90
31133;DHT22;17779;50.942;4.026;2022-12-24T01:57:06;10.90;99.90
31133;DHT22;17779;50.942;4.026;2022-12-24T01:59:32;10.90;99.90
31133;DHT22;17779;50.942;4.026;2022-12-24T02:01:59;11.00;99.90
31133;DHT22;17779;50.942;4.026;2022-12-24T02:06:57;10.90;99.90
31133;DHT22;17779;50.942;4.026;2022-12-24T02:09:23;10.90;99.90
31133;DHT22;17779;50.942;4.026;2022-12-24T02:11:49;10.90;99.90
31133;DHT22;17779;50.942;4.026;2022-12-24T02:14:15;10.90;99.90
31133;DHT22;17779;50.942;4.026;2022-12-24T02:16:45;11.00;99.90
31133;DHT22;17779;50.942;4.026;2022-12-24T02:21:54;11.10;99.90
31133;DHT22;17779;50.942;4.026;2022-12-24T02:26:54;11.00;99.90
31133;DHT22;17779;50.942;4.026;2022-12-24T02:32:14;11.00;99.90
31133;DHT22;17779;50.942;4.026;2022-12-24T02:34:46;11.00;99.90
31133;DHT22;17779;50.942;4.026;2022-12-24T02:37:21;11.00;99.90
31133;DHT22;17779;50.942;4.026;2022-12-24T02:39:50;11.10;99.90
31133;DHT22;17779;50.942;4.026;2022-12-24T02:42:18;11.10;99.90
31133;DHT22;17779;50.942;4.026;2022-12-24T02:44:49;11.10;99.90
31133;DHT22;17779;50.942;4.026;2022-12-24T02:47:17;11.00;99.90
31133;DHT22;17779;50.942;4.026;2022-12-24T02:49:45;11.00;99.90
31133;DHT22;17779;50.942;4.026;2022-12-24T02:52:33;11.00;99.90
31133;DHT22;17779;50.942;4.026;2022-12-24T02:54:59;11.00;99.90
31133;DHT22;17779;50.942;4.026;2022-12-24T03:00:12;10.90;99.90
31133;DHT22;17779;50.942;4.026;2022-12-24T03:10:38;10.70;99.90
31133;DHT22;17779;50.942;4.026;2022-12-24T03:13:09;10.70;99.90
31133;DHT22;17779;50.942;4.026;2022-12-24T03:15:37;10.70;99.90
31133;DHT22;17779;50.942;4.026;2022-12-24T03:18:04;10.70;99.90
31133;DHT22;17779;50.942;4.026;2022-12-24T03:20:35;10.70;99.90
31133;DHT22;17779;50.942;4.026;2022-12-24T03:23:02;10.70;99.90
31133;DHT22;17779;50.942;4.026;2022-12-24T03:25:28;10.80;99.90
31133;DHT22;17779;50.942;4.026;2022-12-24T03:27:54;10.80;99.90
31133;DHT22;17779;50.942;4.026;2022-12-24T03:30:20;10.70;99.90
31133;DHT22;17779;50.942;4.026;2022-12-24T03:32:46;10.70;99.90
31133;DHT22;17779;50.942;4.026;2022-12-24T03:35:12;10.70;99.90
31133;DHT22;17779;50.942;4.026;2022-12-24T03:37:38;10.70;99.90
31133;DHT22;17779;50.942;4.026;2022-12-24T03:40:04;10.60;99.90
31133;DHT22;17779;50.942;4.026;2022-12-24T03:42:30;10.50;99.90
31133;DHT22;17779;50.942;4.026;2022-12-24T03:44:56;10.50;99.90
31133;DHT22;17779;50.942;4.026;2022-12-24T03:47:22;10.50;99.90
31133;DHT22;17779;50.942;4.026;2022-12-24T03:49:48;10.40;99.90
31133;DHT22;17779;50.942;4.026;2022-12-24T03:52:14;10.40;99.90
31133;DHT22;17779;50.942;4.026;2022-12-24T03:54:40;10.40;99.90
31133;DHT22;17779;50.942;4.026;2022-12-24T03:57:05;10.40;99.90
31133;DHT22;17779;50.942;4.026;2022-12-24T03:59:31;10.30;99.90
31133;DHT22;17779;50.942;4.026;2022-12-24T04:01:58;10.40;99.90
31133;DHT22;17779;50.942;4.026;2022-12-24T04:04:24;10.40;99.90
31133;DHT22;17779;50.942;4.026;2022-12-24T04:06:49;10.50;99.90
31133;DHT22;17779;50.942;4.026;2022-12-24T04:09:15;10.60;99.90
31133;DHT22;17779;50.942;4.026;2022-12-24T04:11:40;10.50;99.90
31133;DHT22;17779;50.942;4.026;2022-12-24T04:14:06;10.50;99.90
31133;DHT22;17779;50.942;4.026;2022-12-24T04:16:32;10.50;99.90
31133;DHT22;17779;50.942;4.026;2022-12-24T04:18:58;10.50;99.90
31133;DHT22;17779;50.942;4.026;2022-12-24T04:21:23;10.40;99.90
31133;DHT22;17779;50.942;4.026;2022-12-24T04:23:49;10.40;99.90
31133;DHT22;17779;50.942;4.026;2022-12-24T04:26:15;10.40;99.90
31133;DHT22;17779;50.942;4.026;2022-12-24T04:28:41;10.40;99.90
31133;DHT22;17779;50.942;4.026;2022-12-24T04:31:08;10.30;99.90
31133;DHT22;17779;50.942;4.026;2022-12-24T04:33:34;10.30;99.90
31133;DHT22;17779;50.942;4.026;2022-12-24T04:36:01;10.30;99.90
31133;DHT22;17779;50.942;4.026;2022-12-24T04:38:27;10.30;99.90
31133;DHT22;17779;50.942;4.026;2022-12-24T04:43:51;10.20;99.90
31133;DHT22;17779;50.942;4.026;2022-12-24T04:46:19;10.20;99.90
31133;DHT22;17779;50.942;4.026;2022-12-24T04:48:46;10.20;99.90
31133;DHT22;17779;50.942;4.026;2022-12-24T04:51:12;10.20;99.90
31133;DHT22;17779;50.942;4.026;2022-12-24T04:53:38;10.10;99.90
31133;DHT22;17779;50.942;4.026;2022-12-24T04:56:11;10.10;99.90
31133;DHT22;17779;50.942;4.026;2022-12-24T04:58:38;10.20;99.90
31133;DHT22;17779;50.942;4.026;2022-12-24T05:01:04;10.00;99.90
31133;DHT22;17779;50.942;4.026;2022-12-24T05:03:30;10.00;99.90
31133;DHT22;17779;50.942;4.026;2022-12-24T05:06:06;10.10;99.90
31133;DHT22;17779;50.942;4.026;2022-12-24T05:08:34;10.10;99.90
31133;DHT22;17779;50.942;4.026;2022-12-24T05:11:00;10.10;99.90
31133;DHT22;17779;50.942;4.026;2022-12-24T05:13:26;10.10;99.90
31133;DHT22;17779;50.942;4.026;2022-12-24T05:15:52;10.20;99.90
31133;DHT22;17779;50.942;4.026;2022-12-24T05:18:18;10.30;99.90
31133;DHT22;17779;50.942;4.026;2022-12-24T05:20:43;10.30;99.90
31133;DHT22;17779;50.942;4.026;2022-12-24T05:23:19;10.30;99.90
31133;DHT22;17779;50.942;4.026;2022-12-24T05:26:03;10.30;99.90
31133;DHT22;17779;50.942;4.026;2022-12-24T05:28:53;10.30;99.90
31133;DHT22;17779;50.942;4.026;2022-12-24T05:31:19;10.30;99.90
31133;DHT22;17779;50.942;4.026;2022-12-24T05:33:44;10.30;99.90
31133;DHT22;17779;50.942;4.026;2022-12-24T05:36:10;10.40;99.90
31133;DHT22;17779;50.942;4.026;2022-12-24T05:38:36;10.40;99.90
31133;DHT22;17779;50.942;4.026;2022-12-24T05:41:02;10.40;99.90
31133;DHT22;17779;50.942;4.026;2022-12-24T05:43:27;10.30;99.90
31133;DHT22;17779;50.942;4.026;2022-12-24T05:45:57;10.30;99.90
31133;DHT22;17779;50.942;4.026;2022-12-24T05:48:23;10.30;99.90
31133;DHT22;17779;50.942;4.026;2022-12-24T05:50:48;10.30;99.90
31133;DHT22;17779;50.942;4.026;2022-12-24T05:53:14;10.30;99.90
31133;DHT22;17779;50.942;4.026;2022-12-24T05:55:40;10.30;99.90
31133;DHT22;17779;50.942;4.026;2022-12-24T05:58:05;10.20;99.90
31133;DHT22;17779;50.942;4.026;2022-12-24T06:00:31;10.20;99.90
31133;DHT22;17779;50.942;4.026;2022-12-24T06:02:57;10.20;99.90
31133;DHT22;17779;50.942;4.026;2022-12-24T06:05:23;10.20;99.90
31133;DHT22;17779;50.942;4.026;2022-12-24T06:07:48;10.20;99.90
31133;DHT22;17779;50.942;4.026;2022-12-24T06:10:14;10.20;99.90
31133;DHT22;17779;50.942;4.026;2022-12-24T06:12:40;10.10;99.90
31133;DHT22;17779;50.942;4.026;2022-12-24T06:15:06;10.10;99.90
31133;DHT22;17779;50.942;4.026;2022-12-24T06:17:32;10.10;99.90
31133;DHT22;17779;50.942;4.026;2022-12-24T06:19:57;10.10;99.90
31133;DHT22;17779;50.942;4.026;2022-12-24T06:22:23;10.10;99.90
31133;DHT22;17779;50.942;4.026;2022-12-24T06:24:49;10.10;99.90
31133;DHT22;17779;50.942;4.026;2022-12-24T06:27:14;10.20;99.90
31133;DHT22;17779;50.942;4.026;2022-12-24T06:29:40;10.30;99.90
31133;DHT22;17779;50.942;4.026;2022-12-24T06:32:06;10.30;99.90
31133;DHT22;17779;50.942;4.026;2022-12-24T06:34:31;10.30;99.90
31133;DHT22;17779;50.942;4.026;2022-12-24T06:36:57;10.30;99.90
31133;DHT22;17779;50.942;4.026;2022-12-24T06:39:23;10.30;99.90
31133;DHT22;17779;50.942;4.026;2022-12-24T06:41:48;10.30;99.90
31133;DHT22;17779;50.942;4.026;2022-12-24T06:44:14;10.30;99.90
31133;DHT22;17779;50.942;4.026;2022-12-24T06:46:40;10.30;99.90
31133;DHT22;17779;50.942;4.026;2022-12-24T06:49:05;10.40;99.90
31133;DHT22;17779;50.942;4.026;2022-12-24T06:51:31;10.40;99.90
31133;DHT22;17779;50.942;4.026;2022-12-24T06:53:56;10.40;99.90
31133;DHT22;17779;50.942;4.026;2022-12-24T06:56:22;10.40;99.90
31133;DHT22;17779;50.942;4.026;2022-12-24T06:58:48;10.40;99.90
31133;DHT22;17779;50.942;4.026;2022-12-24T07:01:15;10.40;99.90
31133;DHT22;17779;50.942;4.026;2022-12-24T07:03:41;10.40;99.90
31133;DHT22;17779;50.942;4.026;2022-12-24T07:06:07;10.50;99.90
31133;DHT22;17779;50.942;4.026;2022-12-24T07:08:35;10.50;99.90
31133;DHT22;17779;50.942;4.026;2022-12-24T07:11:01;10.40;99.90
31133;DHT22;17779;50.942;4.026;2022-12-24T07:13:27;10.50;99.90
31133;DHT22;17779;50.942;4.026;2022-12-24T07:15:57;10.40;99.90
31133;DHT22;17779;50.942;4.026;2022-12-24T07:18:25;10.40;99.90
31133;DHT22;17779;50.942;4.026;2022-12-24T07:20:51;10.50;99.90
31133;DHT22;17779;50.942;4.026;2022-12-24T07:23:17;10.40;99.90
31133;DHT22;17779;50.942;4.026;2022-12-24T07:25:42;10.40;99.90
31133;DHT22;17779;50.942;4.026;2022-12-24T07:28:08;10.40;99.90
31133;DHT22;17779;50.942;4.026;2022-12-24T07:30:34;10.30;99.90
31133;DHT22;17779;50.942;4.026;2022-12-24T07:33:00;10.30;99.90
31133;DHT22;17779;50.942;4.026;2022-12-24T07:35:26;10.30;99.90
31133;DHT22;17779;50.942;4.026;2022-12-24T07:37:51;10.20;99.90
31133;DHT22;17779;50.942;4.026;2022-12-24T07:40:17;10.20;99.90
31133;DHT22;17779;50.942;4.026;2022-12-24T07:42:43;10.10;99.90
31133;DHT22;17779;50.942;4.026;2022-12-24T07:45:09;10.10;99.90
31133;DHT22;17779;50.942;4.026;2022-12-24T07:47:35;10.00;99.90
31133;DHT22;17779;50.942;4.026;2022-12-24T07:50:01;10.00;99.90
31133;DHT22;17779;50.942;4.026;2022-12-24T07:52:26;10.00;99.90
31133;DHT22;17779;50.942;4.026;2022-12-24T07:54:52;10.00;99.90
31133;DHT22;17779;50.942;4.026;2022-12-24T07:57:18;10.00;99.90
31133;DHT22;17779;50.942;4.026;2022-12-24T07:59:43;10.00;99.90
31133;DHT22;17779;50.942;4.026;2022-12-24T08:02:09;10.10;99.90
31133;DHT22;17779;50.942;4.026;2022-12-24T08:04:35;10.10;99.90
31133;DHT22;17779;50.942;4.026;2022-12-24T08:07:04;10.10;99.90
31133;DHT22;17779;50.942;4.026;2022-12-24T08:09:32;10.10;99.90
31133;DHT22;17779;50.942;4.026;2022-12-24T08:11:58;10.10;99.90
31133;DHT22;17779;50.942;4.026;2022-12-24T08:14:23;10.10;99.90
31133;DHT22;17779;50.942;4.026;2022-12-24T08:16:49;10.10;99.90
31133;DHT22;17779;50.942;4.026;2022-12-24T08:19:14;10.10;99.90
31133;DHT22;17779;50.942;4.026;2022-12-24T08:21:40;10.20;99.90
31133;DHT22;17779;50.942;4.026;2022-12-24T08:24:06;10.20;99.90
31133;DHT22;17779;50.942;4.026;2022-12-24T08:26:31;10.20;99.90
31133;DHT22;17779;50.942;4.026;2022-12-24T08:28:57;10.20;99.90
31133;DHT22;17779;50.942;4.026;2022-12-24T08:31:23;10.30;99.90
31133;DHT22;17779;50.942;4.026;2022-12-24T08:33:48;10.30;99.90
31133;DHT22;17779;50.942;4.026;2022-12-24T08:36:14;10.30;99.90
31133;DHT22;17779;50.942;4.026;2022-12-24T08:38:40;10.30;99.90
31133;DHT22;17779;50.942;4.026;2022-12-24T08:41:05;10.30;99.90
31133;DHT22;17779;50.942;4.026;2022-12-24T08:43:31;10.30;99.90
31133;DHT22;17779;50.942;4.026;2022-12-24T08:46:00;10.30;99.90
31133;DHT22;17779;50.942;4.026;2022-12-24T08:48:26;10.30;99.90
31133;DHT22;17779;50.942;4.026;2022-12-24T08:50:54;10.40;99.90
31133;DHT22;17779;50.942;4.026;2022-12-24T08:53:20;10.40;99.90
31133;DHT22;17779;50.942;4.026;2022-12-24T08:55:46;10.40;99.90
31133;DHT22;17779;50.942;4.026;2022-12-24T08:58:13;10.50;99.90
31133;DHT22;17779;50.942;4.026;2022-12-24T09:00:39;10.50;99.90
31133;DHT22;17779;50.942;4.026;2022-12-24T09:03:05;10.60;99.90
31133;DHT22;17779;50.942;4.026;2022-12-24T09:05:30;10.60;99.90
31133;DHT22;17779;50.942;4.026;2022-12-24T09:07:56;10.60;99.90
31133;DHT22;17779;50.942;4.026;2022-12-24T09:10:22;10.70;99.90
31133;DHT22;17779;50.942;4.026;2022-12-24T09:12:48;10.90;99.90
31133;DHT22;17779;50.942;4.026;2022-12-24T09:15:14;10.80;99.90
31133;DHT22;17779;50.942;4.026;2022-12-24T09:17:39;10.70;99.90
31133;DHT22;17779;50.942;4.026;2022-12-24T09:20:06;10.70;99.90
31133;DHT22;17779;50.942;4.026;2022-12-24T09:22:35;10.70;99.90
31133;DHT22;17779;50.942;4.026;2022-12-24T09:25:01;10.60;99.90
31133;DHT22;17779;50.942;4.026;2022-12-24T09:27:28;10.60;99.90
31133;DHT22;17779;50.942;4.026;2022-12-24T09:29:54;10.70;99.90
31133;DHT22;17779;50.942;4.026;2022-12-24T09:32:20;10.60;99.90
31133;DHT22;17779;50.942;4.026;2022-12-24T09:34:46;10.60;99.90
31133;DHT22;17779;50.942;4.026;2022-12-24T09:37:12;10.60;99.90
31133;DHT22;17779;50.942;4.026;2022-12-24T09:39:38;10.80;99.90
31133;DHT22;17779;50.942;4.026;2022-12-24T09:44:37;10.80;99.90
31133;DHT22;17779;50.942;4.026;2022-12-24T09:47:09;11.00;99.90
31133;DHT22;17779;50.942;4.026;2022-12-24T09:49:38;11.10;99.90
31133;DHT22;17779;50.942;4.026;2022-12-24T09:52:05;11.10;99.90
31133;DHT22;17779;50.942;4.026;2022-12-24T09:54:43;11.20;99.90
31133;DHT22;17779;50.942;4.026;2022-12-24T09:57:14;11.40;99.90
31133;DHT22;17779;50.942;4.026;2022-12-24T09:59:42;11.30;99.90
31133;DHT22;17779;50.942;4.026;2022-12-24T10:02:10;11.30;99.90
31133;DHT22;17779;50.942;4.026;2022-12-24T10:04:36;11.20;99.90
31133;DHT22;17779;50.942;4.026;2022-12-24T10:09:51;11.00;99.90
31133;DHT22;17779;50.942;4.026;2022-12-24T10:27:42;11.90;99.90
31133;DHT22;17779;50.942;4.026;2022-12-24T10:30:14;12.30;99.90
31133;DHT22;17779;50.942;4.026;2022-12-24T10:32:40;12.70;99.90
31133;DHT22;17779;50.942;4.026;2022-12-24T10:37:38;12.50;99.90
31133;DHT22;17779;50.942;4.026;2022-12-24T10:40:04;12.30;99.90
31133;DHT22;17779;50.942;4.026;2022-12-24T10:42:34;12.30;99.90
31133;DHT22;17779;50.942;4.026;2022-12-24T10:45:04;12.10;99.90
31133;DHT22;17779;50.942;4.026;2022-12-24T10:47:31;12.00;99.90
31133;DHT22;17779;50.942;4.026;2022-12-24T10:50:09;11.80;99.90
31133;DHT22;17779;50.942;4.026;2022-12-24T10:52:38;11.90;99.90
31133;DHT22;17779;50.942;4.026;2022-12-24T10:57:30;12.10;99.90
31133;DHT22;17779;50.942;4.026;2022-12-24T10:59:56;12.30;99.90
31133;DHT22;17779;50.942;4.026;2022-12-24T11:04:53;12.00;99.90
31133;DHT22;17779;50.942;4.026;2022-12-24T11:07:20;11.90;99.90
31133;DHT22;17779;50.942;4.026;2022-12-24T11:10:05;11.80;99.90
31133;DHT22;17779;50.942;4.026;2022-12-24T11:12:32;11.90;99.90
31133;DHT22;17779;50.942;4.026;2022-12-24T11:17:40;11.80;99.90
31133;DHT22;17779;50.942;4.026;2022-12-24T11:20:06;12.10;99.90
31133;DHT22;17779;50.942;4.026;2022-12-24T11:22:32;12.30;99.90
31133;DHT22;17779;50.942;4.026;2022-12-24T11:27:31;12.50;99.90
31133;DHT22;17779;50.942;4.026;2022-12-24T11:32:42;12.70;99.90
31133;DHT22;17779;50.942;4.026;2022-12-24T11:35:13;12.90;99.90
31133;DHT22;17779;50.942;4.026;2022-12-24T11:37:39;13.10;99.90
31133;DHT22;17779;50.942;4.026;2022-12-24T11:40:05;13.20;99.90
31133;DHT22;17779;50.942;4.026;2022-12-24T11:42:42;13.10;99.90
31133;DHT22;17779;50.942;4.026;2022-12-24T11:47:40;13.10;99.90
31133;DHT22;17779;50.942;4.026;2022-12-24T11:50:19;13.30;99.90
31133;DHT22;17779;50.942;4.026;2022-12-24T11:52:46;13.80;99.90
31133;DHT22;17779;50.942;4.026;2022-12-24T11:55:16;14.30;99.90
31133;DHT22;17779;50.942;4.026;2022-12-24T11:57:49;14.40;99.90
31133;DHT22;17779;50.942;4.026;2022-12-24T12:00:16;14.70;99.90
31133;DHT22;17779;50.942;4.026;2022-12-24T12:02:42;14.50;99.90
31133;DHT22;17779;50.942;4.026;2022-12-24T12:07:39;13.80;99.90
31133;DHT22;17779;50.942;4.026;2022-12-24T12:10:11;13.90;99.90
31133;DHT22;17779;50.942;4.026;2022-12-24T12:12:40;13.80;99.90
31133;DHT22;17779;50.942;4.026;2022-12-24T12:22:59;13.60;99.90
31133;DHT22;17779;50.942;4.026;2022-12-24T12:25:29;13.70;99.90
31133;DHT22;17779;50.942;4.026;2022-12-24T12:27:57;13.90;99.90
31133;DHT22;17779;50.942;4.026;2022-12-24T12:30:24;14.20;99.90
31133;DHT22;17779;50.942;4.026;2022-12-24T12:33:12;14.30;99.90
31133;DHT22;17779;50.942;4.026;2022-12-24T12:35:41;14.60;99.90
31133;DHT22;17779;50.942;4.026;2022-12-24T12:38:08;14.40;99.90
31133;DHT22;17779;50.942;4.026;2022-12-24T12:46:02;13.80;99.90
31133;DHT22;17779;50.942;4.026;2022-12-24T12:51:31;13.60;99.90
31133;DHT22;17779;50.942;4.026;2022-12-24T12:56:33;14.00;99.90
31133;DHT22;17779;50.942;4.026;2022-12-24T12:59:01;14.10;99.90
31133;DHT22;17779;50.942;4.026;2022-12-24T13:09:20;13.00;99.90
31133;DHT22;17779;50.942;4.026;2022-12-24T13:11:53;13.00;99.90
31133;DHT22;17779;50.942;4.026;2022-12-24T13:19:59;12.80;99.90
31133;DHT22;17779;50.942;4.026;2022-12-24T13:22:29;12.70;99.90
31133;DHT22;17779;50.942;4.026;2022-12-24T13:24:54;12.70;99.90
31133;DHT22;17779;50.942;4.026;2022-12-24T13:27:27;12.80;99.90
31133;DHT22;17779;50.942;4.026;2022-12-24T13:29:56;13.00;99.90
31133;DHT22;17779;50.942;4.026;2022-12-24T13:34:49;13.40;99.90
31133;DHT22;17779;50.942;4.026;2022-12-24T13:37:19;13.50;99.90
31133;DHT22;17779;50.942;4.026;2022-12-24T13:53:20;13.40;99.90
31133;DHT22;17779;50.942;4.026;2022-12-24T13:55:53;13.10;99.90
31133;DHT22;17779;50.942;4.026;2022-12-24T13:58:19;12.80;99.90
31133;DHT22;17779;50.942;4.026;2022-12-24T14:00:56;12.60;99.90
31133;DHT22;17779;50.942;4.026;2022-12-24T14:05:49;12.50;99.90
31133;DHT22;17779;50.942;4.026;2022-12-24T14:08:24;12.40;99.90
31133;DHT22;17779;50.942;4.026;2022-12-24T14:18:30;12.40;99.90
31133;DHT22;17779;50.942;4.026;2022-12-24T14:20:59;12.30;99.90
31133;DHT22;17779;50.942;4.026;2022-12-24T14:25:56;12.30;99.90
31133;DHT22;17779;50.942;4.026;2022-12-24T14:28:24;12.30;99.90
31133;DHT22;17779;50.942;4.026;2022-12-24T14:31:02;12.10;99.90
31133;DHT22;17779;50.942;4.026;2022-12-24T14:33:29;12.10;99.90
31133;DHT22;17779;50.942;4.026;2022-12-24T14:35:55;12.20;99.90
31133;DHT22;17779;50.942;4.026;2022-12-24T14:38:21;12.20;99.90
31133;DHT22;17779;50.942;4.026;2022-12-24T14:48:51;12.00;99.90
31133;DHT22;17779;50.942;4.026;2022-12-24T14:57:05;12.00;99.90
31133;DHT22;17779;50.942;4.026;2022-12-24T14:59:31;12.00;99.90
31133;DHT22;17779;50.942;4.026;2022-12-24T15:05:08;12.00;99.90
31133;DHT22;17779;50.942;4.026;2022-12-24T15:07:34;12.00;99.90
31133;DHT22;17779;50.942;4.026;2022-12-24T15:10:01;12.10;99.90
31133;DHT22;17779;50.942;4.026;2022-12-24T15:12:27;11.90;99.90
31133;DHT22;17779;50.942;4.026;2022-12-24T15:14:53;12.00;99.90
31133;DHT22;17779;50.942;4.026;2022-12-24T15:17:18;11.90;99.90
31133;DHT22;17779;50.942;4.026;2022-12-24T15:19:46;11.80;99.90
31133;DHT22;17779;50.942;4.026;2022-12-24T15:22:22;11.80;99.90
31133;DHT22;17779;50.942;4.026;2022-12-24T15:24:49;11.90;99.90
31133;DHT22;17779;50.942;4.026;2022-12-24T15:27:19;11.90;99.90
31133;DHT22;17779;50.942;4.026;2022-12-24T15:29:46;11.90;99.90
31133;DHT22;17779;50.942;4.026;2022-12-24T15:32:13;11.90;99.90
31133;DHT22;17779;50.942;4.026;2022-12-24T15:34:43;11.90;99.90
31133;DHT22;17779;50.942;4.026;2022-12-24T15:39:34;11.70;99.90
31133;DHT22;17779;50.942;4.026;2022-12-24T15:42:00;11.70;99.90
31133;DHT22;17779;50.942;4.026;2022-12-24T15:44:39;11.70;99.90
31133;DHT22;17779;50.942;4.026;2022-12-24T15:47:06;11.70;99.90
31133;DHT22;17779;50.942;4.026;2022-12-24T15:49:32;11.80;99.90
31133;DHT22;17779;50.942;4.026;2022-12-24T15:52:03;11.60;99.90
31133;DHT22;17779;50.942;4.026;2022-12-24T15:54:29;11.50;99.90
31133;DHT22;17779;50.942;4.026;2022-12-24T15:56:56;11.50;99.90
31133;DHT22;17779;50.942;4.026;2022-12-24T15:59:27;11.50;99.90
31133;DHT22;17779;50.942;4.026;2022-12-24T16:01:53;11.40;99.90
31133;DHT22;17779;50.942;4.026;2022-12-24T16:06:55;11.30;99.90
31133;DHT22;17779;50.942;4.026;2022-12-24T16:12:02;11.30;99.90
31133;DHT22;17779;50.942;4.026;2022-12-24T16:14:28;11.10;99.90
31133;DHT22;17779;50.942;4.026;2022-12-24T16:16:54;11.00;99.90
31133;DHT22;17779;50.942;4.026;2022-12-24T16:19:32;10.90;99.90
31133;DHT22;17779;50.942;4.026;2022-12-24T16:21:59;11.00;99.90
31133;DHT22;17779;50.942;4.026;2022-12-24T16:24:45;11.00;99.90
31133;DHT22;17779;50.942;4.026;2022-12-24T16:27:11;10.90;99.90
31133;DHT22;17779;50.942;4.026;2022-12-24T16:29:37;10.90;99.90
31133;DHT22;17779;50.942;4.026;2022-12-24T16:32:03;10.90;99.90
31133;DHT22;17779;50.942;4.026;2022-12-24T16:34:29;10.80;99.90
31133;DHT22;17779;50.942;4.026;2022-12-24T16:36:55;10.80;99.90
31133;DHT22;17779;50.942;4.026;2022-12-24T16:39:26;10.80;99.90
31133;DHT22;17779;50.942;4.026;2022-12-24T16:42:00;10.70;99.90
31133;DHT22;17779;50.942;4.026;2022-12-24T16:44:45;10.80;99.90
31133;DHT22;17779;50.942;4.026;2022-12-24T16:47:12;10.80;99.90
31133;DHT22;17779;50.942;4.026;2022-12-24T16:49:38;10.60;99.90
31133;DHT22;17779;50.942;4.026;2022-12-24T16:52:04;10.80;99.90
31133;DHT22;17779;50.942;4.026;2022-12-24T16:54:30;10.90;99.90
31133;DHT22;17779;50.942;4.026;2022-12-24T16:56:55;11.00;99.90
31133;DHT22;17779;50.942;4.026;2022-12-24T16:59:22;11.00;99.90
31133;DHT22;17779;50.942;4.026;2022-12-24T17:01:49;10.90;99.90
31133;DHT22;17779;50.942;4.026;2022-12-24T17:04:15;10.80;99.90
31133;DHT22;17779;50.942;4.026;2022-12-24T17:06:41;10.60;99.90
31133;DHT22;17779;50.942;4.026;2022-12-24T17:09:07;10.60;99.90
31133;DHT22;17779;50.942;4.026;2022-12-24T17:11:33;10.60;99.90
31133;DHT22;17779;50.942;4.026;2022-12-24T17:13:59;10.60;99.90
31133;DHT22;17779;50.942;4.026;2022-12-24T17:16:25;10.50;99.90
31133;DHT22;17779;50.942;4.026;2022-12-24T17:18:50;10.60;99.90
31133;DHT22;17779;50.942;4.026;2022-12-24T17:21:17;10.70;99.90
31133;DHT22;17779;50.942;4.026;2022-12-24T17:23:43;10.60;99.90
31133;DHT22;17779;50.942;4.026;2022-12-24T17:26:12;10.50;99.90
31133;DHT22;17779;50.942;4.026;2022-12-24T17:28:37;10.50;99.90
31133;DHT22;17779;50.942;4.026;2022-12-24T17:31:07;10.30;99.90
31133;DHT22;17779;50.942;4.026;2022-12-24T17:33:33;10.30;99.90
31133;DHT22;17779;50.942;4.026;2022-12-24T17:35:59;10.40;99.90
31133;DHT22;17779;50.942;4.026;2022-12-24T17:38:24;10.40;99.90
31133;DHT22;17779;50.942;4.026;2022-12-24T17:40:50;10.30;99.90
31133;DHT22;17779;50.942;4.026;2022-12-24T17:43:16;10.30;99.90
31133;DHT22;17779;50.942;4.026;2022-12-24T17:45:42;10.30;99.90
31133;DHT22;17779;50.942;4.026;2022-12-24T17:48:08;10.40;99.90
31133;DHT22;17779;50.942;4.026;2022-12-24T17:50:36;10.40;99.90
31133;DHT22;17779;50.942;4.026;2022-12-24T17:53:02;10.30;99.90
31133;DHT22;17779;50.942;4.026;2022-12-24T17:55:27;10.30;99.90
31133;DHT22;17779;50.942;4.026;2022-12-24T17:57:53;10.40;99.90
31133;DHT22;17779;50.942;4.026;2022-12-24T18:00:18;10.30;99.90
31133;DHT22;17779;50.942;4.026;2022-12-24T18:02:44;10.40;99.90
31133;DHT22;17779;50.942;4.026;2022-12-24T18:05:10;10.40;99.90